Time,TemperatureF,DewpointF,PressureIn,WindDirection,WindDirectionDegrees,WindSpeedMPH,WindSpeedGustMPH,Humidity,HourlyPrecipIn,Conditions,Clouds,dailyrainin,SolarRadiationWatts/m^2,SoftwareType,DateUTC
2013-04-21 00:06:00,38.0,26.0,30.31,NW,315,0.0,1.0,63,0.00,,,0.00,0,weatherlink.com 1.10,2013-04-21 04:06:00,
2013-04-21 00:21:00,37.8,26.0,30.32,NW,316,0.0,1.0,63,0.00,,,0.00,0,weatherlink.com 1.10,2013-04-21 04:21:00,
2013-04-21 00:36:00,37.4,24.0,30.32,SSE,156,1.0,5.0,60,0.00,,,0.00,0,weatherlink.com 1.10,2013-04-21 04:36:00,
2013-04-21 00:51:00,37.1,23.0,30.33,West,278,2.0,3.0,56,0.00,,,0.00,0,weatherlink.com 1.10,2013-04-21 04:51:00,
2013-04-21 01:06:00,36.9,22.0,30.33,SW,225,0.0,3.0,55,0.00,,,0.00,0,weatherlink.com 1.10,2013-04-21 05:06:00,
2013-04-21 01:21:00,36.6,21.0,30.34,WNW,290,0.0,2.0,54,0.00,,,0.00,0,weatherlink.com 1.10,2013-04-21 05:21:00,
2013-04-21 01:36:00,36.3,21.0,30.34,NNW,345,0.0,4.0,54,0.00,,,0.00,0,weatherlink.com 1.10,2013-04-21 05:36:00,
2013-04-21 01:51:00,36.1,21.0,30.34,NW,304,1.0,8.0,54,0.00,,,0.00,0,weatherlink.com 1.10,2013-04-21 05:51:00,
2013-04-21 02:06:00,35.9,21.0,30.35,WNW,299,1.0,2.0,55,0.00,,,0.00,0,weatherlink.com 1.10,2013-04-21 06:06:00,
2013-04-21 02:21:00,35.6,21.0,30.35,SE,132,2.0,4.0,55,0.00,,,0.00,0,weatherlink.com 1.10,2013-04-21 06:21:00,
2013-04-21 02:36:00,35.6,21.0,30.36,WNW,283,1.0,3.0,56,0.00,,,0.00,0,weatherlink.com 1.10,2013-04-21 06:36:00,
2013-04-21 02:51:00,35.5,21.0,30.36,NNW,334,1.0,2.0,57,0.00,,,0.00,0,weatherlink.com 1.10,2013-04-21 06:51:00,
2013-04-21 03:06:00,35.5,21.0,30.37,NNW,338,0.0,5.0,57,0.00,,,0.00,0,weatherlink.com 1.10,2013-04-21 07:06:00,
2013-04-21 03:21:00,35.4,21.0,30.37,SW,217,0.0,3.0,57,0.00,,,0.00,0,weatherlink.com 1.10,2013-04-21 07:21:00,
2013-04-21 03:36:00,35.3,22.0,30.38,NNW,340,0.0,3.0,58,0.00,,,0.00,0,weatherlink.com 1.10,2013-04-21 07:36:00,
2013-04-21 03:51:00,35.2,22.0,30.38,NNW,345,0.0,3.0,58,0.00,,,0.00,0,weatherlink.com 1.10,2013-04-21 07:51:00,
2013-04-21 04:06:00,35.1,22.0,30.39,NNW,345,1.0,1.0,60,0.00,,,0.00,0,weatherlink.com 1.10,2013-04-21 08:06:00,
2013-04-21 04:21:00,34.9,23.0,30.40,NNW,345,0.0,2.0,61,0.00,,,0.00,0,weatherlink.com 1.10,2013-04-21 08:21:00,
2013-04-21 04:36:00,34.8,22.0,30.41,NNW,336,0.0,2.0,61,0.00,,,0.00,0,weatherlink.com 1.10,2013-04-21 08:36:00,
2013-04-21 04:51:00,34.3,22.0,30.41,WSW,244,0.0,2.0,60,0.00,,,0.00,0,weatherlink.com 1.10,2013-04-21 08:51:00,
2013-04-21 05:06:00,33.8,21.0,30.42,SW,231,1.0,2.0,60,0.00,,,0.00,0,weatherlink.com 1.10,2013-04-21 09:06:00,
2013-04-21 05:21:00,33.3,21.0,30.43,NNW,336,0.0,2.0,60,0.00,,,0.00,0,weatherlink.com 1.10,2013-04-21 09:21:00,
2013-04-21 05:36:00,32.9,20.0,30.44,NNW,336,0.0,2.0,60,0.00,,,0.00,0,weatherlink.com 1.10,2013-04-21 09:36:00,
2013-04-21 05:51:00,32.7,20.0,30.45,WSW,252,1.0,4.0,60,0.00,,,0.00,0,weatherlink.com 1.10,2013-04-21 09:51:00,
2013-04-21 06:06:00,32.5,19.0,30.46,SW,221,1.0,2.0,59,0.00,,,0.00,0,weatherlink.com 1.10,2013-04-21 10:06:00,
2013-04-21 06:21:00,32.4,20.0,30.47,SW,232,0.0,2.0,60,0.00,,,0.00,7,weatherlink.com 1.10,2013-04-21 10:21:00,
2013-04-21 06:37:00,32.3,20.0,30.49,SW,226,1.0,3.0,61,0.00,,,0.00,11,weatherlink.com 1.10,2013-04-21 10:37:00,
2013-04-21 06:52:00,32.4,19.0,30.50,West,276,0.0,4.0,59,0.00,,,0.00,14,weatherlink.com 1.10,2013-04-21 10:52:00,
2013-04-21 07:07:00,32.8,20.0,30.51,South,178,0.0,3.0,59,0.00,,,0.00,19,weatherlink.com 1.10,2013-04-21 11:07:00,
2013-04-21 07:22:00,33.1,20.0,30.52,SSW,199,1.0,3.0,58,0.00,,,0.00,23,weatherlink.com 1.10,2013-04-21 11:22:00,
2013-04-21 07:37:00,33.2,19.0,30.52,SSE,161,0.0,3.0,57,0.00,,,0.00,25,weatherlink.com 1.10,2013-04-21 11:37:00,
2013-04-21 07:52:00,33.5,19.0,30.53,South,188,2.0,6.0,56,0.00,,,0.00,26,weatherlink.com 1.10,2013-04-21 11:52:00,
2013-04-21 08:07:00,33.8,19.0,30.54,NNW,331,1.0,6.0,55,0.00,,,0.00,30,weatherlink.com 1.10,2013-04-21 12:07:00,
2013-04-21 08:22:00,34.3,20.0,30.55,WSW,240,2.0,5.0,55,0.00,,,0.00,32,weatherlink.com 1.10,2013-04-21 12:22:00,
2013-04-21 08:37:00,34.8,19.0,30.55,West,275,1.0,5.0,52,0.00,,,0.00,33,weatherlink.com 1.10,2013-04-21 12:37:00,
2013-04-21 08:52:00,35.4,19.0,30.56,West,276,3.0,6.0,51,0.00,,,0.00,35,weatherlink.com 1.10,2013-04-21 12:52:00,
2013-04-21 09:07:00,35.9,18.0,30.56,North,355,2.0,9.0,48,0.00,,,0.00,37,weatherlink.com 1.10,2013-04-21 13:07:00,
2013-04-21 09:22:00,36.9,19.0,30.56,SE,134,2.0,3.0,48,0.00,,,0.00,40,weatherlink.com 1.10,2013-04-21 13:22:00,
2013-04-21 09:37:00,37.3,19.0,30.57,South,181,2.0,8.0,47,0.00,,,0.00,42,weatherlink.com 1.10,2013-04-21 13:37:00,
2013-04-21 09:52:00,38.2,18.0,30.57,East,81,0.0,5.0,45,0.00,,,0.00,44,weatherlink.com 1.10,2013-04-21 13:52:00,
2013-04-21 10:07:00,38.7,19.0,30.57,ENE,68,5.0,7.0,45,0.00,,,0.00,46,weatherlink.com 1.10,2013-04-21 14:07:00,
2013-04-21 10:22:00,39.8,19.0,30.57,South,178,1.0,4.0,44,0.00,,,0.00,47,weatherlink.com 1.10,2013-04-21 14:22:00,
2013-04-21 10:37:00,40.5,19.0,30.57,West,263,0.0,5.0,43,0.00,,,0.00,51,weatherlink.com 1.10,2013-04-21 14:37:00,
2013-04-21 10:52:00,40.8,19.0,30.57,NNW,331,1.0,10.0,42,0.00,,,0.00,54,weatherlink.com 1.10,2013-04-21 14:52:00,
2013-04-21 11:07:00,41.1,18.0,30.58,WNW,285,1.0,10.0,40,0.00,,,0.00,858,weatherlink.com 1.10,2013-04-21 15:07:00,
2013-04-21 11:22:00,41.3,20.0,30.57,West,275,1.0,13.0,42,0.00,,,0.00,888,weatherlink.com 1.10,2013-04-21 15:22:00,
2013-04-21 11:37:00,41.8,19.0,30.58,NNW,342,3.0,9.0,40,0.00,,,0.00,905,weatherlink.com 1.10,2013-04-21 15:37:00,
2013-04-21 11:52:00,44.5,20.0,30.57,NNW,347,1.0,4.0,38,0.00,,,0.00,921,weatherlink.com 1.10,2013-04-21 15:52:00,
2013-04-21 12:07:00,45.2,22.0,30.57,WSW,237,1.0,5.0,40,0.00,,,0.00,939,weatherlink.com 1.10,2013-04-21 16:07:00,
2013-04-21 12:22:00,46.8,22.0,30.57,SSW,213,0.0,4.0,37,0.00,,,0.00,954,weatherlink.com 1.10,2013-04-21 16:22:00,
2013-04-21 12:38:00,47.3,22.0,30.57,SSE,162,1.0,4.0,37,0.00,,,0.00,974,weatherlink.com 1.10,2013-04-21 16:38:00,
2013-04-21 12:53:00,48.1,23.0,30.57,NNW,346,3.0,4.0,37,0.00,,,0.00,979,weatherlink.com 1.10,2013-04-21 16:53:00,
2013-04-21 13:08:00,48.8,23.0,30.56,SE,126,0.0,4.0,37,0.00,,,0.00,984,weatherlink.com 1.10,2013-04-21 17:08:00,
2013-04-21 13:23:00,48.8,25.0,30.55,West,264,1.0,4.0,39,0.00,,,0.00,988,weatherlink.com 1.10,2013-04-21 17:23:00,
2013-04-21 13:38:00,50.2,23.0,30.55,North,9,2.0,5.0,34,0.00,,,0.00,990,weatherlink.com 1.10,2013-04-21 17:38:00,
2013-04-21 13:53:00,48.8,23.0,30.55,WNW,292,1.0,5.0,36,0.00,,,0.00,977,weatherlink.com 1.10,2013-04-21 17:53:00,
2013-04-21 14:08:00,50.8,23.0,30.55,WSW,257,1.0,11.0,34,0.00,,,0.00,881,weatherlink.com 1.10,2013-04-21 18:08:00,
2013-04-21 14:23:00,51.4,26.0,30.55,West,271,0.0,4.0,37,0.00,,,0.00,953,weatherlink.com 1.10,2013-04-21 18:23:00,
2013-04-21 14:38:00,51.6,26.0,30.54,SSW,198,2.0,3.0,37,0.00,,,0.00,933,weatherlink.com 1.10,2013-04-21 18:38:00,
2013-04-21 14:53:00,52.4,23.0,30.54,NNW,344,0.0,2.0,32,0.00,,,0.00,905,weatherlink.com 1.10,2013-04-21 18:53:00,
2013-04-21 15:08:00,50.7,23.0,30.54,South,191,1.0,3.0,34,0.00,,,0.00,905,weatherlink.com 1.10,2013-04-21 19:08:00,
2013-04-21 15:23:00,51.6,24.0,30.53,WSW,249,2.0,5.0,34,0.00,,,0.00,768,weatherlink.com 1.10,2013-04-21 19:23:00,
2013-04-21 15:38:00,51.7,24.0,30.53,WSW,238,1.0,4.0,34,0.00,,,0.00,798,weatherlink.com 1.10,2013-04-21 19:38:00,
2013-04-21 15:53:00,52.6,25.0,30.53,SW,230,1.0,3.0,34,0.00,,,0.00,775,weatherlink.com 1.10,2013-04-21 19:53:00,
2013-04-21 16:08:00,52.2,24.0,30.53,SW,233,1.0,3.0,33,0.00,,,0.00,731,weatherlink.com 1.10,2013-04-21 20:08:00,
2013-04-21 16:23:00,52.7,23.0,30.52,West,273,1.0,3.0,32,0.00,,,0.00,686,weatherlink.com 1.10,2013-04-21 20:23:00,
2013-04-21 16:38:00,52.5,22.0,30.53,WSW,252,1.0,2.0,31,0.00,,,0.00,622,weatherlink.com 1.10,2013-04-21 20:38:00,
2013-04-21 16:53:00,52.8,23.0,30.53,WNW,285,0.0,3.0,31,0.00,,,0.00,589,weatherlink.com 1.10,2013-04-21 20:53:00,
2013-04-21 17:08:00,52.2,22.0,30.53,SW,217,1.0,2.0,31,0.00,,,0.00,540,weatherlink.com 1.10,2013-04-21 21:08:00,
2013-04-21 17:23:00,52.5,24.0,30.53,SW,226,0.0,3.0,33,0.00,,,0.00,480,weatherlink.com 1.10,2013-04-21 21:23:00,
2013-04-21 17:38:00,51.6,22.0,30.53,West,271,2.0,3.0,32,0.00,,,0.00,424,weatherlink.com 1.10,2013-04-21 21:38:00,
2013-04-21 17:53:00,51.4,22.0,30.54,SW,232,1.0,2.0,31,0.00,,,0.00,364,weatherlink.com 1.10,2013-04-21 21:53:00,
2013-04-21 18:08:00,51.1,20.0,30.54,South,186,1.0,2.0,30,0.00,,,0.00,306,weatherlink.com 1.10,2013-04-21 22:08:00,
2013-04-21 18:23:00,51.1,20.0,30.54,South,186,0.0,2.0,30,0.00,,,0.00,234,weatherlink.com 1.10,2013-04-21 22:23:00,
2013-04-21 18:38:00,50.8,20.0,30.54,South,186,1.0,2.0,30,0.00,,,0.00,171,weatherlink.com 1.10,2013-04-21 22:38:00,
2013-04-21 19:08:00,49.3,19.0,30.55,NNW,348,0.0,2.0,30,0.00,,,0.00,65,weatherlink.com 1.10,2013-04-21 23:08:00,
2013-04-21 19:23:00,48.4,19.0,30.56,NNW,348,0.0,1.0,31,0.00,,,0.00,14,weatherlink.com 1.10,2013-04-21 23:23:00,
2013-04-21 19:38:00,47.6,20.0,30.56,NNW,348,0.0,1.0,33,0.00,,,0.00,0,weatherlink.com 1.10,2013-04-21 23:38:00,
2013-04-21 19:53:00,46.7,19.0,30.57,NNW,348,0.0,1.0,33,0.00,,,0.00,0,weatherlink.com 1.10,2013-04-21 23:53:00,
2013-04-21 20:08:00,46.2,20.0,30.57,NNW,348,0.0,0.0,35,0.00,,,0.00,0,weatherlink.com 1.10,2013-04-22 00:08:00,
2013-04-21 20:23:00,44.5,23.0,30.57,NNW,348,0.0,0.0,42,0.00,,,0.00,0,weatherlink.com 1.10,2013-04-22 00:23:00,
2013-04-21 20:38:00,43.6,23.0,30.58,NNW,348,0.0,0.0,45,0.00,,,0.00,0,weatherlink.com 1.10,2013-04-22 00:38:00,
2013-04-21 20:53:00,42.5,24.0,30.58,NNW,348,0.0,0.0,49,0.00,,,0.00,0,weatherlink.com 1.10,2013-04-22 00:53:00,
2013-04-21 21:08:00,41.8,24.0,30.59,NNW,348,0.0,1.0,50,0.00,,,0.00,0,weatherlink.com 1.10,2013-04-22 01:08:00,
2013-04-21 21:23:00,40.7,25.0,30.59,NNW,348,0.0,0.0,55,0.00,,,0.00,0,weatherlink.com 1.10,2013-04-22 01:23:00,
2013-04-21 21:38:00,39.4,26.0,30.60,NNW,348,0.0,1.0,60,0.00,,,0.00,0,weatherlink.com 1.10,2013-04-22 01:38:00,
2013-04-21 21:53:00,38.5,27.0,30.60,NNW,348,0.0,0.0,64,0.00,,,0.00,0,weatherlink.com 1.10,2013-04-22 01:53:00,
2013-04-21 22:08:00,38.2,27.0,30.61,NNW,348,0.0,0.0,65,0.00,,,0.00,0,weatherlink.com 1.10,2013-04-22 02:08:00,
2013-04-21 22:23:00,37.8,27.0,30.60,NNW,348,0.0,0.0,66,0.00,,,0.00,0,weatherlink.com 1.10,2013-04-22 02:23:00,
2013-04-21 22:38:00,37.1,28.0,30.61,NNW,348,0.0,0.0,69,0.00,,,0.00,0,weatherlink.com 1.10,2013-04-22 02:38:00,
2013-04-21 22:53:00,36.7,28.0,30.61,NNW,348,0.0,1.0,71,0.00,,,0.00,0,weatherlink.com 1.10,2013-04-22 02:53:00,
2013-04-21 23:08:00,36.0,27.0,30.60,NNW,348,0.0,0.0,71,0.00,,,0.00,0,weatherlink.com 1.10,2013-04-22 03:08:00,
2013-04-21 23:23:00,36.0,27.0,30.60,NNW,348,0.0,1.0,70,0.00,,,0.00,0,weatherlink.com 1.10,2013-04-22 03:23:00,
2013-04-21 23:38:00,37.0,26.0,30.61,NNW,348,1.0,1.0,65,0.00,,,0.00,0,weatherlink.com 1.10,2013-04-22 03:38:00,
2013-04-21 23:53:00,37.1,25.0,30.61,NNW,348,1.0,1.0,63,0.00,,,0.00,0,weatherlink.com 1.10,2013-04-22 03:53:00,